Time;durP1;ratioP1;P1;durP2;ratioP2;P2;SDS_P1;SDS_P2;PMS_P1;PMS_P2;Temp;Humidity;BMP_temperature;BMP_pressure;BME280_temperature;BME280_humidity;BME280_pressure;Samples;Min_cycle;Max_cycle;Signal;HPM_P1;HPM_P2
2021/01/23 00:00:25;;;;;;;7.03;2.80;;;;;;;10.23;70.37;97941.63;5094019;28;20536;-67
2021/01/23 00:02:52;;;;;;;4.65;2.10;;;;;;;10.32;69.86;97931.16;5094051;28;20060;-69
2021/01/23 00:05:22;;;;;;;9.90;2.65;;;;;;;10.39;69.37;97929.31;5094155;28;20560;-68
2021/01/23 00:07:49;;;;;;;6.07;2.03;;;;;;;10.43;69.42;97929.16;5094058;28;20060;-69
2021/01/23 00:10:17;;;;;;;4.53;2.20;;;;;;;10.59;69.15;97920.19;5094067;28;20375;-69
2021/01/23 00:12:45;;;;;;;5.90;2.65;;;;;;;10.74;68.57;97917.19;5093943;28;20051;-67
2021/01/23 00:15:13;;;;;;;5.88;1.98;;;;;;;10.69;68.97;97928.41;5094024;28;20126;-68
2021/01/23 00:17:40;;;;;;;4.90;2.38;;;;;;;10.55;69.34;97922.88;5093940;28;20079;-68
2021/01/23 00:20:09;;;;;;;5.63;2.78;;;;;;;10.40;69.07;97913.94;5093939;28;20078;-69
2021/01/23 00:22:38;;;;;;;6.82;2.90;;;;;;;10.33;70.01;97912.44;5093887;28;20075;-68
2021/01/23 00:25:07;;;;;;;8.15;2.83;;;;;;;10.39;69.87;97906.34;5093855;28;20448;-69
2021/01/23 00:27:35;;;;;;;3.92;1.88;;;;;;;10.64;68.90;97887.72;5093734;28;20151;-68
2021/01/23 00:30:04;;;;;;;8.00;3.00;;;;;;;10.76;68.18;97887.38;5093787;28;20125;-67
2021/01/23 00:32:32;;;;;;;5.47;2.40;;;;;;;10.82;68.32;97890.63;5093631;28;20094;-67
2021/01/23 00:35:00;;;;;;;5.28;3.15;;;;;;;10.72;68.14;97884.94;5093763;28;20075;-69
2021/01/23 00:37:28;;;;;;;6.70;3.30;;;;;;;10.65;68.27;97888.56;5094081;28;20093;-69
2021/01/23 00:39:56;;;;;;;6.95;2.53;;;;;;;10.71;68.08;97894.31;5093895;28;20553;-70
2021/01/23 00:42:24;;;;;;;5.20;2.50;;;;;;;10.71;68.44;97891.75;5093657;28;20090;-67
2021/01/23 00:44:52;;;;;;;6.05;1.77;;;;;;;10.83;67.98;97903.31;5093598;28;20062;-69
2021/01/23 00:47:20;;;;;;;4.55;1.67;;;;;;;10.98;67.38;97887.53;5093634;28;20044;-68
2021/01/23 00:49:49;;;;;;;9.73;3.10;;;;;;;10.50;67.23;97843.09;5092390;28;20117;-68
2021/01/23 00:52:16;;;;;;;10.18;3.60;;;;;;;10.42;68.66;97876.47;5093539;28;20040;-68
2021/01/23 00:54:45;;;;;;;6.88;3.00;;;;;;;10.19;69.82;97875.47;5092351;28;20055;-68
2021/01/23 00:57:14;;;;;;;9.40;3.72;;;;;;;10.01;69.51;97874.22;5092599;28;20097;-69
2021/01/23 00:59:43;;;;;;;;;;;;;;;9.91;70.10;97883.03;5093756;28;20052;-68
2021/01/23 01:02:10;;;;;;;8.57;4.00;;;;;;;9.90;70.63;97876.25;5093863;28;19926;-68
2021/01/23 01:04:41;;;;;;;5.22;2.65;;;;;;;9.98;70.45;97859.06;5094549;28;20063;-68
2021/01/23 01:07:09;;;;;;;4.43;2.30;;;;;;;10.12;70.14;97863.78;5097523;28;20044;-68
2021/01/23 01:09:37;;;;;;;5.43;2.10;;;;;;;10.47;68.69;97859.34;5097510;28;20387;-69
2021/01/23 01:12:05;;;;;;;6.00;2.40;;;;;;;10.52;68.46;97852.38;5097301;28;20519;-69
2021/01/23 01:14:34;;;;;;;4.63;2.08;;;;;;;10.68;68.37;97847.63;5097407;28;20094;-68
2021/01/23 01:17:04;;;;;;;8.02;2.58;;;;;;;10.67;68.23;97841.72;5097355;28;20089;-69
2021/01/23 01:19:32;;;;;;;7.22;2.53;;;;;;;10.67;68.11;97846.00;5097613;28;20131;-68
2021/01/23 01:22:00;;;;;;;6.10;2.40;;;;;;;10.59;68.40;97864.06;5097539;28;20123;-69
2021/01/23 01:24:27;;;;;;;5.25;2.33;;;;;;;10.55;68.24;97859.94;5097555;28;20055;-68
2021/01/23 01:26:55;;;;;;;3.47;1.80;;;;;;;10.69;67.52;97839.13;5097106;28;20056;-70
2021/01/23 01:29:23;;;;;;;6.57;2.55;;;;;;;10.78;67.02;97844.78;5097089;28;20063;-69
2021/01/23 01:31:51;;;;;;;8.15;2.45;;;;;;;10.71;67.13;97828.00;5096922;28;20482;-69
2021/01/23 01:34:19;;;;;;;5.47;2.22;;;;;;;10.82;67.44;97821.72;5097112;28;20056;-66
2021/01/23 01:36:47;;;;;;;4.78;2.05;;;;;;;10.82;67.53;97831.94;5097255;28;20135;-70
2021/01/23 01:39:15;;;;;;;8.40;2.42;;;;;;;10.78;67.63;97829.47;5096922;28;20079;-68
2021/01/23 01:41:43;;;;;;;6.22;2.55;;;;;;;10.78;68.15;97829.47;5096887;28;20097;-68
2021/01/23 01:44:11;;;;;;;6.43;2.85;;;;;;;10.54;68.66;97840.41;5096834;28;20160;-69
2021/01/23 01:46:40;;;;;;;4.93;2.25;;;;;;;10.31;69.69;97842.81;5096797;28;20071;-69
2021/01/23 01:49:09;;;;;;;4.87;1.80;;;;;;;10.35;70.11;97829.09;5096755;28;20055;-71
2021/01/23 01:51:39;;;;;;;6.25;2.80;;;;;;;10.47;69.14;97853.41;5096678;28;20287;-68
2021/01/23 01:54:06;;;;;;;5.80;2.83;;;;;;;10.19;70.17;97863.56;5096596;28;20135;-69
2021/01/23 01:56:34;;;;;;;5.15;2.63;;;;;;;10.17;70.36;97849.19;5096591;28;20052;-68
2021/01/23 01:59:02;;;;;;;6.72;2.88;;;;;;;10.31;70.47;97847.09;5096519;28;20052;-69
2021/01/23 02:01:30;;;;;;;12.90;2.92;;;;;;;10.30;70.20;97866.63;5096625;28;20048;-68
2021/01/23 02:04:17;;;;;;;5.95;2.70;;;;;;;10.49;69.30;97831.22;5096443;28;20055;-68
2021/01/23 02:07:06;;;;;;;4.20;2.05;;;;;;;10.61;68.73;97836.78;5096459;28;20122;-71
2021/01/23 02:09:50;;;;;;;6.25;2.85;;;;;;;10.64;68.24;97836.72;5096310;28;20048;-69
2021/01/23 02:12:23;;;;;;;4.47;2.30;;;;;;;10.59;69.14;97828.38;5096277;28;20509;-69
2021/01/23 02:15:00;;;;;;;4.50;1.90;;;;;;;10.71;67.67;97822.88;5096482;28;20090;-69
2021/01/23 02:17:31;;;;;;;6.30;2.88;;;;;;;10.61;67.90;97826.59;5096204;28;20076;-68
2021/01/23 02:20:22;;;;;;;5.40;2.92;;;;;;;10.54;68.76;97825.13;5096167;28;20071;-70
2021/01/23 02:23:11;;;;;;;6.47;2.80;;;;;;;10.38;68.95;97803.50;5096144;28;20065;-68
2021/01/23 02:25:45;;;;;;;5.90;2.60;;;;;;;10.34;69.05;97822.31;5096046;28;20070;-69
2021/01/23 02:28:18;;;;;;;7.53;2.70;;;;;;;10.25;69.68;97831.94;5096358;28;20122;-69
2021/01/23 02:31:00;;;;;;;4.68;2.58;;;;;;;10.30;69.51;97843.69;5096446;28;20106;-70
2021/01/23 02:33:31;;;;;;;5.13;2.63;;;;;;;10.42;68.62;97824.63;5095992;28;20040;-69
2021/01/23 02:36:02;;;;;;;7.20;2.90;;;;;;;10.26;68.84;97791.13;5095839;28;20459;-69
2021/01/23 02:38:32;;;;;;;4.53;2.47;;;;;;;10.47;68.30;97818.53;5095819;28;20047;-69
2021/01/23 02:41:01;;;;;;;5.88;2.60;;;;;;;10.08;68.51;97748.31;5095736;28;20052;-69
2021/01/23 02:43:29;;;;;;;5.07;3.00;;;;;;;10.42;67.97;97784.69;5095713;28;20127;-69
2021/01/23 02:45:56;;;;;;;5.40;2.65;;;;;;;10.52;67.89;97809.03;5095592;28;20494;-70
2021/01/23 02:48:25;;;;;;;4.90;2.55;;;;;;;10.54;68.10;97809.81;5095575;28;20424;-70
2021/01/23 02:51:00;;;;;;;6.13;2.70;;;;;;;10.53;67.93;97818.34;5095482;28;20063;-69
2021/01/23 02:53:34;;;;;;;6.72;3.15;;;;;;;10.42;68.44;97805.09;5095566;28;20052;-68
2021/01/23 02:56:08;;;;;;;6.28;3.20;;;;;;;10.47;68.71;97803.22;5095534;28;20054;-68
2021/01/23 02:58:37;;;;;;;7.03;2.83;;;;;;;10.46;68.07;97805.84;5095747;28;20058;-69
2021/01/23 03:01:05;;;;;;;3.80;2.20;;;;;;;10.39;68.41;97800.06;5095343;28;20056;-68
2021/01/23 03:03:34;;;;;;;5.57;2.42;;;;;;;10.40;68.80;97806.84;5095244;28;20571;-67
2021/01/23 03:06:05;;;;;;;4.20;2.03;;;;;;;10.31;68.79;97801.19;5095562;28;20063;-69
2021/01/23 03:08:34;;;;;;;8.43;3.40;;;;;;;10.16;69.57;97810.13;5095176;28;20052;-70
2021/01/23 03:11:03;;;;;;;5.70;2.73;;;;;;;10.03;70.77;97811.31;5095192;28;20044;-69
2021/01/23 03:13:30;;;;;;;4.45;2.33;;;;;;;9.97;71.88;97825.06;5095063;28;20048;-69
2021/01/23 03:15:58;;;;;;;5.32;2.22;;;;;;;10.03;70.88;97806.22;5095060;28;20093;-68
2021/01/23 03:18:26;;;;;;;8.35;2.78;;;;;;;10.09;71.19;97803.50;5094956;28;20496;-70
2021/01/23 03:20:54;;;;;;;6.25;2.58;;;;;;;10.03;72.36;97801.97;5094975;28;20048;-70
2021/01/23 03:23:23;;;;;;;5.38;2.70;;;;;;;10.04;71.83;97798.53;5094902;28;20089;-70
2021/01/23 03:25:50;;;;;;;6.07;3.20;;;;;;;9.94;72.79;97791.19;5094916;28;20052;-69
2021/01/23 03:28:19;;;;;;;7.30;3.15;;;;;;;9.78;73.08;97789.97;5094645;28;20060;-69
2021/01/23 03:30:47;;;;;;;6.20;3.17;;;;;;;9.82;73.19;97794.09;5094819;28;20052;-69
2021/01/23 03:33:15;;;;;;;5.78;2.70;;;;;;;9.83;73.05;97788.13;5094650;28;20046;-70
2021/01/23 03:35:43;;;;;;;8.95;3.83;;;;;;;9.71;74.36;97780.81;5094695;28;20048;-71
2021/01/23 03:38:11;;;;;;;4.07;2.17;;;;;;;9.67;74.74;97782.63;5094716;28;20456;-70
2021/01/23 03:40:41;;;;;;;5.07;2.35;;;;;;;9.65;75.38;97778.44;5094595;28;20051;-70
2021/01/23 03:43:09;;;;;;;9.25;2.70;;;;;;;9.65;74.99;97791.16;5094565;28;20048;-71
2021/01/23 03:45:38;;;;;;;5.50;2.67;;;;;;;9.93;73.09;97766.59;5094308;28;20078;-71
2021/01/23 03:48:07;;;;;;;5.25;2.50;;;;;;;9.98;72.68;97757.94;5094474;28;20062;-70
2021/01/23 03:50:35;;;;;;;6.07;2.40;;;;;;;10.05;73.05;97771.34;5094404;28;20413;-70
2021/01/23 03:53:03;;;;;;;6.05;2.70;;;;;;;10.09;72.06;97755.91;5094586;28;20113;-70
2021/01/23 03:55:31;;;;;;;5.82;2.55;;;;;;;10.08;72.14;97753.41;5094558;28;20448;-70
2021/01/23 03:58:00;;;;;;;5.75;2.45;;;;;;;10.06;71.94;97755.16;5094238;28;20052;-69
2021/01/23 04:00:28;;;;;;;5.60;2.63;;;;;;;10.06;71.93;97755.16;5093919;28;20051;-69
2021/01/23 04:02:55;;;;;;;7.50;2.60;;;;;;;10.00;72.31;97750.25;5094513;28;20122;-71
2021/01/23 04:05:24;;;;;;;6.82;3.30;;;;;;;9.91;73.01;97745.44;5094197;28;20448;-69
2021/01/23 04:07:51;;;;;;;4.38;1.95;;;;;;;9.94;72.31;97737.69;5094081;28;20079;-70
2021/01/23 04:10:19;;;;;;;4.75;2.47;;;;;;;9.93;72.70;97729.19;5094082;28;20051;-70
2021/01/23 04:12:47;;;;;;;6.72;2.65;;;;;;;9.87;72.14;97724.31;5093939;28;20119;-69
2021/01/23 04:15:16;;;;;;;5.55;2.83;;;;;;;9.93;71.66;97719.00;5094007;28;20058;-69
2021/01/23 04:17:44;;;;;;;3.92;2.13;;;;;;;9.97;72.56;97714.66;5093932;28;20458;-69
2021/01/23 04:20:12;;;;;;;2.78;1.52;;;;;;;9.93;72.12;97738.59;5093959;28;20101;-69
2021/01/23 04:22:40;;;;;;;5.45;2.72;;;;;;;9.90;73.17;97748.84;5094113;28;20504;-70
2021/01/23 04:25:09;;;;;;;4.53;2.20;;;;;;;9.89;72.93;97736.97;5093822;28;20056;-71
2021/01/23 04:27:37;;;;;;;7.40;3.08;;;;;;;9.86;72.75;97721.81;5093831;28;20048;-70
2021/01/23 04:30:08;;;;;;;6.45;2.67;;;;;;;9.73;73.26;97718.78;5093810;28;20458;-71
2021/01/23 04:32:37;;;;;;;6.22;2.92;;;;;;;9.61;74.69;97708.09;5093620;28;20443;-71
2021/01/23 04:35:06;;;;;;;5.97;2.80;;;;;;;9.54;74.55;97714.25;5093806;28;20052;-71
2021/01/23 04:37:34;;;;;;;5.35;2.90;;;;;;;9.61;74.32;97711.50;5094334;28;20047;-71
2021/01/23 04:40:03;;;;;;;5.18;2.75;;;;;;;9.50;75.25;97708.44;5093878;28;20406;-71
2021/01/23 04:42:32;;;;;;;5.90;3.08;;;;;;;9.50;76.08;97710.13;5094038;28;20044;-71
2021/01/23 04:44:59;;;;;;;5.45;3.35;;;;;;;9.44;77.22;97700.94;5093553;28;20040;-70
2021/01/23 04:47:27;;;;;;;9.57;3.20;;;;;;;9.38;76.79;97712.13;5093638;28;20052;-71
2021/01/23 04:49:56;;;;;;;6.88;3.75;;;;;;;9.39;76.81;97697.69;5093551;28;20079;-70
2021/01/23 04:52:24;;;;;;;5.70;3.10;;;;;;;9.37;77.11;97692.66;5093508;28;20040;-72
2021/01/23 04:54:52;;;;;;;6.13;3.28;;;;;;;9.35;77.40;97699.50;5092706;28;20083;-72
2021/01/23 04:57:21;;;;;;;6.30;3.25;;;;;;;9.29;77.66;97684.38;5093551;28;20101;-68
2021/01/23 04:59:49;;;;;;;5.47;2.63;;;;;;;9.33;77.61;97706.31;5093799;28;20059;-70
2021/01/23 05:02:20;;;;;;;5.13;3.20;;;;;;;9.36;77.05;97701.16;5094070;28;20042;-70
2021/01/23 05:04:52;;;;;;;4.70;2.53;;;;;;;9.32;77.82;97709.75;5093462;28;20451;-70
2021/01/23 05:07:32;;;;;;;4.30;2.17;;;;;;;9.34;77.08;97687.63;5093511;28;20045;-72
2021/01/23 05:10:12;;;;;;;4.32;1.88;;;;;;;9.42;76.52;97688.28;5093533;28;20071;-72
2021/01/23 05:12:42;;;;;;;5.32;2.45;;;;;;;9.36;76.50;97680.78;5093693;28;20042;-70
2021/01/23 05:15:12;;;;;;;5.80;2.88;;;;;;;9.34;76.58;97677.47;5093353;28;20067;-72
2021/01/23 05:17:47;;;;;;;4.97;2.78;;;;;;;9.34;75.94;97694.44;5093478;28;20048;-72
2021/01/23 05:20:29;;;;;;;6.45;3.08;;;;;;;9.23;76.42;97681.19;5093309;28;20044;-72
2021/01/23 05:22:59;;;;;;;8.07;3.38;;;;;;;9.16;76.93;97666.97;5093381;28;20046;-72
2021/01/23 05:25:27;;;;;;;8.20;3.47;;;;;;;9.12;77.03;97685.72;5093446;28;20074;-71
2021/01/23 05:27:55;;;;;;;8.25;3.53;;;;;;;9.08;77.74;97700.25;5093602;28;20051;-72
2021/01/23 05:30:23;;;;;;;5.28;2.97;;;;;;;9.02;78.07;97685.13;5093279;28;20105;-71
2021/01/23 05:33:06;;;;;;;2.90;1.50;;;;;;;8.93;77.73;97712.50;5093063;28;20044;-72
2021/01/23 05:35:35;;;;;;;6.85;3.45;;;;;;;8.77;78.09;97667.16;5093218;28;20056;-71
2021/01/23 05:38:19;;;;;;;6.28;3.33;;;;;;;9.03;77.95;97696.16;5093139;28;20078;-72
2021/01/23 05:40:47;;;;;;;6.45;3.33;;;;;;;9.01;77.62;97688.56;5093437;28;20044;-71
2021/01/23 05:43:28;;;;;;;6.53;3.72;;;;;;;8.82;78.03;97667.03;5092057;28;20136;-72
2021/01/23 05:46:00;;;;;;;5.38;2.90;;;;;;;9.04;77.24;97678.31;5092215;28;20085;-71
2021/01/23 05:48:28;;;;;;;6.15;3.38;;;;;;;9.04;77.92;97683.41;5092937;28;20066;-72
2021/01/23 05:50:55;;;;;;;6.15;3.63;;;;;;;8.97;77.88;97675.97;5094333;28;20413;-71
2021/01/23 05:53:24;;;;;;;6.68;2.75;;;;;;;9.05;77.20;97682.50;5096523;28;20079;-71
2021/01/23 05:55:52;;;;;;;7.10;3.20;;;;;;;8.99;77.31;97675.06;5096909;28;20052;-71
2021/01/23 05:58:21;;;;;;;4.53;2.58;;;;;;;8.74;77.60;97638.41;5096504;28;20056;-71
2021/01/23 06:00:49;;;;;;;5.68;2.38;;;;;;;9.19;77.51;97689.78;5095225;28;20067;-71
2021/01/23 06:03:18;;;;;;;6.25;3.25;;;;;;;9.36;76.60;97693.53;5096365;28;20486;-69
2021/01/23 06:05:54;;;;;;;6.35;3.22;;;;;;;8.69;77.13;97569.03;5096405;28;20093;-71
2021/01/23 06:08:37;;;;;;;6.72;2.75;;;;;;;9.59;75.33;97687.78;5096359;28;20093;-71
2021/01/23 06:11:05;;;;;;;4.70;2.20;;;;;;;9.69;74.95;97693.44;5096632;28;20081;-70
2021/01/23 06:13:45;;;;;;;3.85;1.80;;;;;;;9.53;74.04;97641.28;5096740;28;20413;-71
2021/01/23 06:16:38;;;;;;;3.55;1.95;;;;;;;9.94;73.76;97685.03;5096282;28;20068;-70
2021/01/23 06:19:28;;;;;;;4.72;1.90;;;;;;;10.04;72.92;97705.97;5088631;28;20494;-72
2021/01/23 06:21:56;;;;;;;4.25;2.05;;;;;;;10.01;72.92;97700.94;5096168;28;20444;-71
2021/01/23 06:24:51;;;;;;;5.45;2.60;;;;;;;9.91;72.28;97707.22;5096002;28;20131;-71
2021/01/23 06:27:19;;;;;;;4.18;2.20;;;;;;;9.86;73.50;97729.47;5096263;28;20069;-71
2021/01/23 06:29:47;;;;;;;5.10;1.95;;;;;;;9.86;73.27;97709.06;5095860;28;20052;-70
2021/01/23 06:32:29;;;;;;;4.82;2.22;;;;;;;9.82;73.72;97699.84;5095822;28;20051;-70
2021/01/23 06:35:02;;;;;;;4.25;2.25;;;;;;;9.78;73.74;97693.16;5096164;28;20089;-72
2021/01/23 06:37:33;;;;;;;4.13;2.17;;;;;;;9.73;73.66;97715.41;5096222;28;20044;-72
2021/01/23 06:40:06;;;;;;;6.50;2.40;;;;;;;9.38;74.52;97691.75;5096071;28;20044;-73
2021/01/23 06:42:38;;;;;;;7.60;2.83;;;;;;;9.63;74.42;97724.16;5062271;28;20048;-73
2021/01/23 06:45:15;;;;;;;;;;;;;;;9.59;74.92;97732.78;5094812;28;20131;-74
2021/01/23 06:47:44;;;;;;;4.97;2.20;;;;;;;9.54;74.96;97719.34;5096076;28;20009;-71
2021/01/23 06:50:13;;;;;;;4.57;2.33;;;;;;;9.53;75.36;97722.75;5095582;28;20130;-73
2021/01/23 06:52:59;;;;;;;5.37;2.40;;;;;;;9.52;75.13;97721.94;5095513;28;20358;-73
2021/01/23 06:55:49;;;;;;;5.97;2.20;;;;;;;9.51;74.72;97724.50;5095320;28;20041;-72
2021/01/23 06:58:24;;;;;;;7.40;2.67;;;;;;;9.38;75.51;97739.31;5095472;28;20068;-73
2021/01/23 07:00:56;;;;;;;4.45;2.63;;;;;;;9.29;75.76;97742.94;5095542;28;20132;-72
2021/01/23 07:03:28;;;;;;;5.68;2.88;;;;;;;9.28;75.91;97754.00;5094515;28;20161;-73
2021/01/23 07:05:57;;;;;;;5.20;2.25;;;;;;;9.23;76.08;97745.66;5095239;28;20098;-73
2021/01/23 07:08:28;;;;;;;5.53;2.47;;;;;;;9.15;76.95;97737.38;5095413;28;20063;-72
2021/01/23 07:11:09;;;;;;;3.40;1.95;;;;;;;9.22;76.69;97763.47;5095131;28;20485;-72
2021/01/23 07:13:40;;;;;;;4.78;2.60;;;;;;;9.19;77.47;97764.41;5094988;28;20047;-73
2021/01/23 07:16:11;;;;;;;4.07;2.20;;;;;;;9.18;77.25;97762.75;5095090;28;20050;-73
2021/01/23 07:18:40;;;;;;;5.90;2.75;;;;;;;9.13;77.14;97758.63;5094988;28;20089;-72
2021/01/23 07:21:08;;;;;;;6.18;2.10;;;;;;;9.03;77.92;97773.31;5095201;28;20055;-73
2021/01/23 07:23:36;;;;;;;4.47;2.20;;;;;;;8.99;78.83;97765.78;5094843;28;20097;-73
2021/01/23 07:26:04;;;;;;;7.05;2.20;;;;;;;8.94;79.12;97763.38;5094874;28;20052;-73
2021/01/23 07:28:35;;;;;;;7.13;2.90;;;;;;;8.89;78.72;97760.09;5094830;28;20044;-73
2021/01/23 07:31:18;;;;;;;5.30;2.90;;;;;;;8.84;79.81;97761.09;5093589;28;20040;-73
2021/01/23 07:33:45;;;;;;;5.28;2.20;;;;;;;8.89;78.82;97757.56;5093670;28;20052;-73
2021/01/23 07:36:28;;;;;;;6.25;3.13;;;;;;;8.91;79.51;97758.34;5093501;28;20051;-72
2021/01/23 07:38:56;;;;;;;6.97;2.38;;;;;;;8.96;79.05;97771.78;5094581;28;20052;-72
2021/01/23 07:41:28;;;;;;;6.28;3.42;;;;;;;8.85;78.93;97791.59;5093397;28;20067;-72
2021/01/23 07:43:58;;;;;;;5.88;2.95;;;;;;;8.56;80.44;97776.19;5094801;28;20036;-71
2021/01/23 07:46:34;;;;;;;6.57;3.80;;;;;;;8.56;80.81;97791.44;5094472;28;20512;-71
2021/01/23 07:49:03;;;;;;;5.05;2.67;;;;;;;8.66;80.34;97797.97;5094427;28;20126;-69
2021/01/23 07:51:31;;;;;;;4.88;2.40;;;;;;;8.80;79.29;97795.09;5094448;28;20086;-72
2021/01/23 07:54:06;;;;;;;8.98;3.25;;;;;;;8.65;79.59;97786.13;5094236;28;20036;-72
2021/01/23 07:56:35;;;;;;;6.75;3.30;;;;;;;8.59;79.92;97806.63;5094412;28;20117;-71
2021/01/23 07:59:05;;;;;;;5.82;2.67;;;;;;;8.57;80.20;97798.16;5094231;28;20058;-71
2021/01/23 08:01:33;;;;;;;5.60;2.45;;;;;;;8.60;81.30;97798.09;5094327;28;20052;-70
2021/01/23 08:04:01;;;;;;;7.80;3.83;;;;;;;8.63;81.12;97798.03;5094171;28;20052;-71
2021/01/23 08:06:32;;;;;;;8.20;3.33;;;;;;;8.60;80.55;97795.56;5094153;28;20040;-70
2021/01/23 08:09:17;;;;;;;6.00;3.20;;;;;;;8.60;81.10;97780.31;5094113;28;20064;-72
2021/01/23 08:11:46;;;;;;;6.32;3.03;;;;;;;8.54;81.25;97772.84;5094348;28;20048;-74
2021/01/23 08:14:15;;;;;;;8.43;3.40;;;;;;;8.61;81.18;97789.63;5093616;28;20047;-73
2021/01/23 08:16:54;;;;;;;6.35;3.30;;;;;;;8.63;80.77;97792.97;5093940;28;20096;-73
2021/01/23 08:19:24;;;;;;;6.82;3.72;;;;;;;8.64;80.53;97794.63;5093876;28;20116;-72
2021/01/23 08:22:06;;;;;;;5.88;2.90;;;;;;;8.70;80.10;97794.47;5093852;28;20133;-71
2021/01/23 08:24:33;;;;;;;8.13;3.63;;;;;;;8.61;80.88;97784.53;5093829;28;20382;-73
2021/01/23 08:27:14;;;;;;;6.97;3.28;;;;;;;8.46;81.58;97793.34;5093740;28;20059;-73
2021/01/23 08:29:45;;;;;;;10.25;3.97;;;;;;;8.42;81.23;97793.47;5093682;28;20044;-73
2021/01/23 08:32:14;;;;;;;8.07;3.58;;;;;;;8.48;81.19;97785.69;5093660;28;20044;-72
2021/01/23 08:34:43;;;;;;;3.17;1.92;;;;;;;8.59;80.67;97782.00;5093778;28;20047;-73
2021/01/23 08:37:12;;;;;;;6.57;3.22;;;;;;;8.51;80.85;97770.38;5093729;28;20078;-72
2021/01/23 08:39:42;;;;;;;6.00;3.05;;;;;;;8.16;80.55;97724.56;5093749;28;20077;-72
2021/01/23 08:42:10;;;;;;;8.38;3.58;;;;;;;8.56;81.07;97809.22;5093941;28;20082;-72
2021/01/23 08:44:38;;;;;;;4.38;2.08;;;;;;;8.32;80.35;97776.75;5093902;28;20060;-73
2021/01/23 08:47:07;;;;;;;6.95;3.65;;;;;;;8.40;81.00;97825.66;5093877;28;20068;-74
2021/01/23 08:49:35;;;;;;;7.67;3.47;;;;;;;8.34;81.80;97820.75;5093522;28;20567;-73
2021/01/23 08:52:04;;;;;;;7.18;3.55;;;;;;;8.44;81.35;97806.97;5043070;28;20482;-73
2021/01/23 08:54:32;;;;;;;7.35;3.28;;;;;;;8.45;81.69;97801.00;5093466;28;20486;-73
2021/01/23 08:57:00;;;;;;;9.85;3.63;;;;;;;8.54;81.20;97793.19;5093546;28;20063;-72
2021/01/23 08:59:27;;;;;;;7.93;3.92;;;;;;;8.52;80.85;97799.97;5093472;28;20062;-73
2021/01/23 09:01:57;;;;;;;7.38;3.53;;;;;;;8.44;80.58;97819.66;5093558;28;20400;-73
2021/01/23 09:04:25;;;;;;;7.30;3.50;;;;;;;8.40;81.62;97811.25;5093435;28;20071;-72
2021/01/23 09:06:53;;;;;;;6.15;3.83;;;;;;;8.42;81.11;97836.66;5093573;28;20131;-73
2021/01/23 09:09:21;;;;;;;8.10;3.83;;;;;;;8.42;81.66;97823.97;5093385;28;20044;-73
2021/01/23 09:11:49;;;;;;;5.78;2.33;;;;;;;8.41;81.83;97837.53;5092248;28;20397;-73
2021/01/23 09:14:17;;;;;;;5.38;2.53;;;;;;;8.39;80.99;97845.19;5093284;28;20047;-73
2021/01/23 09:16:46;;;;;;;7.95;4.15;;;;;;;8.26;81.97;97860.69;5093402;28;20098;-72
2021/01/23 09:19:17;;;;;;;8.38;3.97;;;;;;;8.20;83.08;97850.66;5093416;28;20051;-71
2021/01/23 09:21:48;;;;;;;9.40;4.45;;;;;;;8.20;83.21;97848.13;5093394;28;20056;-72
2021/01/23 09:24:17;;;;;;;7.00;3.67;;;;;;;8.13;83.14;97835.53;5093521;28;20131;-70
2021/01/23 09:26:45;;;;;;;8.35;4.13;;;;;;;8.15;83.61;97835.50;5096054;28;20048;-71
2021/01/23 09:29:16;;;;;;;7.70;4.07;;;;;;;8.17;83.27;97838.00;5097210;28;20099;-71
2021/01/23 09:31:44;;;;;;;7.03;4.13;;;;;;;8.21;83.35;97839.59;5097082;28;20063;-72
2021/01/23 09:34:15;;;;;;;7.85;3.90;;;;;;;8.34;82.55;97847.00;5097004;28;20482;-70
2021/01/23 09:36:43;;;;;;;7.97;3.97;;;;;;;8.36;82.67;97839.31;5096935;28;20109;-74
2021/01/23 09:39:12;;;;;;;6.40;3.47;;;;;;;8.40;81.59;97851.09;5096914;28;20036;-73
2021/01/23 09:41:41;;;;;;;4.57;2.42;;;;;;;8.38;81.07;97847.75;5097374;28;20054;-73
2021/01/23 09:44:08;;;;;;;6.30;3.22;;;;;;;8.36;81.84;97845.25;5096810;28;20055;-71
2021/01/23 09:46:36;;;;;;;7.15;3.63;;;;;;;8.35;81.38;97851.19;5096783;28;20052;-72
2021/01/23 09:49:05;;;;;;;6.57;4.30;;;;;;;8.35;81.50;97843.56;5096736;28;20058;-73
2021/01/23 09:51:33;;;;;;;10.18;3.90;;;;;;;8.18;81.91;97801.59;5096705;28;20048;-73
2021/01/23 09:54:01;;;;;;;7.68;3.15;;;;;;;8.44;81.86;97823.06;5096566;28;20489;-71
2021/01/23 09:56:30;;;;;;;11.25;4.80;;;;;;;8.52;81.44;97815.22;5096809;28;20052;-74
2021/01/23 09:59:00;;;;;;;5.50;3.22;;;;;;;8.58;81.42;97815.09;5096604;28;20060;-72
2021/01/23 10:01:37;;;;;;;6.95;3.90;;;;;;;8.69;80.76;97808.06;5096118;28;20052;-72
2021/01/23 10:04:05;;;;;;;6.57;4.15;;;;;;;8.81;80.17;97807.78;5096438;28;20055;-73
2021/01/23 10:06:33;;;;;;;5.30;2.80;;;;;;;8.86;80.02;97798.31;5096469;28;20052;-72
2021/01/23 10:09:01;;;;;;;7.03;2.88;;;;;;;9.04;78.56;97797.88;5096329;28;20052;-73
2021/01/23 10:11:29;;;;;;;6.82;3.15;;;;;;;9.09;78.78;97813.88;5096610;28;20056;-72
2021/01/23 10:13:58;;;;;;;6.93;3.35;;;;;;;8.45;78.87;97699.31;5096114;28;20573;-72
2021/01/23 10:16:25;;;;;;;5.57;3.08;;;;;;;9.15;78.95;97805.25;5096210;28;20040;-73
2021/01/23 10:18:53;;;;;;;5.57;3.03;;;;;;;9.14;79.16;97794.22;5096199;28;20125;-71
2021/01/23 10:21:21;;;;;;;6.53;2.75;;;;;;;9.17;78.20;97799.22;5096021;28;20060;-72
2021/01/23 10:23:49;;;;;;;7.00;3.88;;;;;;;9.09;78.78;97793.53;5096028;28;20047;-69
2021/01/23 10:26:16;;;;;;;5.53;2.78;;;;;;;9.02;78.78;97786.88;5096021;28;20051;-72
2021/01/23 10:28:46;;;;;;;6.65;4.00;;;;;;;8.99;78.43;97809.88;5095976;28;20410;-72
2021/01/23 10:31:14;;;;;;;7.90;3.38;;;;;;;8.88;79.05;97811.84;5096007;28;20557;-72
2021/01/23 10:33:43;;;;;;;;;;;;;;;8.79;79.08;97799.34;5096286;28;20093;-73
2021/01/23 10:36:11;;;;;;;7.75;4.80;;;;;;;8.69;79.86;97806.34;5095660;28;19920;-73
2021/01/23 10:38:39;;;;;;;8.98;4.50;;;;;;;8.65;80.27;97789.50;5095834;28;20063;-72
2021/01/23 10:41:07;;;;;;;7.63;4.30;;;;;;;8.66;80.13;97791.16;5095997;28;20123;-72
2021/01/23 10:43:34;;;;;;;8.27;3.40;;;;;;;8.61;80.39;97770.09;5094588;28;20040;-72
2021/01/23 10:46:03;;;;;;;6.47;3.85;;;;;;;8.80;79.24;97785.78;5095641;28;20058;-70
2021/01/23 10:48:32;;;;;;;6.53;3.45;;;;;;;8.80;79.48;97798.50;5095610;28;20548;-72
2021/01/23 10:51:00;;;;;;;7.75;3.40;;;;;;;8.83;79.52;97800.94;5095784;28;20055;-71
2021/01/23 10:53:28;;;;;;;6.18;3.40;;;;;;;8.83;79.67;97802.66;5095568;28;20040;-71
2021/01/23 10:55:55;;;;;;;4.70;2.47;;;;;;;8.89;79.36;97795.72;5095395;28;20462;-72
2021/01/23 10:58:24;;;;;;;6.88;3.65;;;;;;;8.90;79.07;97797.38;5095443;28;20040;-71
2021/01/23 11:00:51;;;;;;;6.95;3.53;;;;;;;8.82;79.58;97811.16;5095122;28;20078;-71
2021/01/23 11:03:19;;;;;;;7.70;4.10;;;;;;;8.75;79.76;97807.94;5095541;28;20048;-71
2021/01/23 11:05:51;;;;;;;7.53;3.20;;;;;;;8.80;80.42;97795.94;5095379;28;20121;-72
2021/01/23 11:08:19;;;;;;;6.32;3.13;;;;;;;8.87;80.30;97801.72;5095307;28;20051;-72
2021/01/23 11:10:47;;;;;;;7.30;3.03;;;;;;;8.95;80.48;97800.63;5094019;28;20056;-73
2021/01/23 11:13:15;;;;;;;6.78;2.95;;;;;;;8.95;80.20;97797.28;5095391;28;20053;-71
2021/01/23 11:15:45;;;;;;;8.32;3.47;;;;;;;8.58;80.88;97733.75;5095185;28;20052;-73
2021/01/23 11:18:14;;;;;;;7.03;3.40;;;;;;;8.90;81.30;97782.09;5093859;28;20101;-73
2021/01/23 11:20:43;;;;;;;7.00;3.33;;;;;;;8.92;81.47;97775.28;5095071;28;20048;-73
2021/01/23 11:23:12;;;;;;;7.88;4.15;;;;;;;8.97;81.16;97770.09;5094925;28;20048;-73
2021/01/23 11:25:40;;;;;;;6.22;3.38;;;;;;;9.05;80.94;97783.44;5094932;28;20056;-72
2021/01/23 11:28:08;;;;;;;8.07;3.53;;;;;;;9.00;81.46;97783.56;5094864;28;20044;-73
2021/01/23 11:30:36;;;;;;;7.28;4.28;;;;;;;8.89;82.21;97800.81;5094859;28;20513;-72
2021/01/23 11:33:04;;;;;;;5.35;3.00;;;;;;;8.87;81.43;97787.28;5094672;28;20102;-74
2021/01/23 11:35:32;;;;;;;8.32;3.50;;;;;;;8.87;82.13;97787.28;5094769;28;20428;-73
2021/01/23 11:38:02;;;;;;;8.25;3.30;;;;;;;8.90;82.90;97776.22;5094665;28;20044;-73
2021/01/23 11:40:33;;;;;;;6.28;3.10;;;;;;;8.95;82.70;97777.75;5094712;28;20091;-73
2021/01/23 11:43:01;;;;;;;9.63;3.50;;;;;;;8.99;82.35;97787.00;5093709;28;20044;-73
2021/01/23 11:45:29;;;;;;;7.15;3.63;;;;;;;8.75;82.24;97769.78;5094517;28;20405;-73
2021/01/23 11:47:57;;;;;;;7.88;3.92;;;;;;;8.72;82.57;97788.50;5094021;28;20062;-73
2021/01/23 11:50:26;;;;;;;9.52;4.03;;;;;;;7.73;83.85;97678.94;5094575;28;20529;-73
2021/01/23 11:52:55;;;;;;;12.43;5.82;;;;;;;8.34;83.25;97815.66;5094662;28;20126;-74